Time;durP1;ratioP1;P1;durP2;ratioP2;P2;SDS_P1;SDS_P2;PMS_P1;PMS_P2;Temp;Humidity;BMP_temperature;BMP_pressure;BME280_temperature;BME280_humidity;BME280_pressure;Samples;Min_cycle;Max_cycle;Signal;HPM_P1;HPM_P2
2021/01/14 00:01:29;;;;;;;6.97;4.45;;;2.20;98.30;;;;;;5144200;23;20252;-82
2021/01/14 00:04:00;;;;;;;6.13;3.80;;;2.20;98.30;;;;;;5143163;23;20541;-81
2021/01/14 00:06:34;;;;;;;5.50;3.78;;;2.10;98.30;;;;;;5151312;23;20266;-81
2021/01/14 00:09:34;;;;;;;10.40;3.90;;;2.10;98.30;;;;;;5143281;23;20255;-82
2021/01/14 00:12:39;;;;;;;7.30;3.60;;;2.10;98.30;;;;;;5131080;23;20209;-82
2021/01/14 00:14:55;;;;;;;4.00;3.60;;;2.10;98.30;;;;;;5153001;23;21196;-82
2021/01/14 00:17:06;;;;;;;6.65;3.67;;;2.10;98.30;;;;;;5152307;23;20198;-82
2021/01/14 00:19:17;;;;;;;8.50;4.28;;;2.10;98.30;;;;;;5126611;23;20202;-83
2021/01/14 00:21:31;;;;;;;8.98;4.10;;;2.00;98.30;;;;;;5154791;23;20221;-83
2021/01/14 00:23:34;;;;;;;7.00;3.58;;;2.10;98.30;;;;;;5131093;23;20215;-83
2021/01/14 00:25:44;;;;;;;7.80;4.40;;;2.00;98.30;;;;;;5156709;23;20198;-83
2021/01/14 00:31:44;;;;;;;7.35;4.40;;;1.90;98.30;;;;;;5110590;23;20544;-81
2021/01/14 00:34:43;;;;;;;7.05;4.90;;;1.90;98.30;;;;;;5050643;23;20711;-81
2021/01/14 00:39:06;;;;;;;6.95;4.50;;;2.00;98.30;;;;;;5140926;23;20205;-81
2021/01/14 00:41:09;;;;;;;11.77;4.55;;;2.00;98.30;;;;;;5149893;23;20233;-81
2021/01/14 00:43:12;;;;;;;6.18;5.05;;;2.00;98.30;;;;;;5149225;23;20202;-81
2021/01/14 00:45:15;;;;;;;8.40;5.28;;;2.00;98.30;;;;;;5141433;23;20232;-81
2021/01/14 00:47:17;;;;;;;5.75;4.55;;;2.00;98.30;;;;;;5149330;23;20217;-81
2021/01/14 00:49:19;;;;;;;8.18;4.60;;;2.00;98.30;;;;;;5149177;23;20209;-82
2021/01/14 00:51:22;;;;;;;8.35;4.60;;;1.90;98.30;;;;;;5150737;23;20229;-82
2021/01/14 00:53:24;;;;;;;7.22;4.43;;;1.90;98.30;;;;;;5150292;23;20217;-82
2021/01/14 00:55:29;;;;;;;8.98;5.30;;;2.00;98.30;;;;;;5151120;23;20224;-82
2021/01/14 00:57:45;;;;;;;7.60;5.00;;;2.00;98.30;;;;;;5152028;23;20248;-82
2021/01/14 01:02:13;;;;;;;7.93;4.47;;;2.00;98.30;;;;;;5129959;23;20201;-80
2021/01/14 01:04:32;;;;;;;6.20;4.45;;;2.00;98.30;;;;;;5151778;23;20205;-82
2021/01/14 01:06:59;;;;;;;6.35;4.80;;;2.00;98.30;;;;;;5152077;23;20209;-81
2021/01/14 01:09:10;;;;;;;5.60;4.50;;;2.00;98.30;;;;;;5141144;23;20220;-82
2021/01/14 01:11:13;;;;;;;8.20;5.10;;;2.00;98.30;;;;;;5151861;23;20215;-82
2021/01/14 01:13:22;;;;;;;7.15;4.82;;;2.00;98.30;;;;;;5152921;23;20209;-82
2021/01/14 01:15:25;;;;;;;5.78;4.95;;;2.00;98.30;;;;;;5153230;23;20221;-82
2021/01/14 01:17:40;;;;;;;6.07;5.28;;;2.00;98.30;;;;;;5152131;23;20558;-81
2021/01/14 01:20:15;;;;;;;6.20;5.00;;;1.90;98.30;;;;;;5152516;23;20578;-81
2021/01/14 01:22:32;;;;;;;6.40;5.30;;;1.90;98.30;;;;;;5075689;23;20211;-81
2021/01/14 03:29:58;;;;;;;8.93;6.30;;;2.20;98.30;;;;;;5129597;23;20520;-82
2021/01/14 03:32:15;;;;;;;13.88;6.40;;;2.20;98.30;;;;;;5150151;23;20572;-82
2021/01/14 03:35:21;;;;;;;6.43;5.70;;;2.30;98.30;;;;;;5150875;23;20951;-83
2021/01/14 03:37:39;;;;;;;9.55;6.28;;;2.30;98.30;;;;;;5069617;23;20200;-82
2021/01/14 03:39:51;;;;;;;8.18;5.97;;;2.30;98.30;;;;;;5149461;23;20232;-82
2021/01/14 03:41:57;;;;;;;8.95;5.85;;;2.20;98.30;;;;;;5149849;23;20999;-82
2021/01/14 03:44:03;;;;;;;9.45;6.20;;;2.20;98.30;;;;;;5150124;23;20201;-82
2021/01/14 03:46:15;;;;;;;10.20;7.07;;;2.20;98.30;;;;;;5150840;23;20228;-82
2021/01/14 03:48:21;;;;;;;10.25;6.40;;;2.20;98.30;;;;;;5149914;23;20240;-82
2021/01/14 03:50:26;;;;;;;8.57;6.38;;;2.20;98.30;;;;;;5150499;23;20197;-82
2021/01/14 03:52:29;;;;;;;9.45;6.63;;;2.20;98.30;;;;;;5151039;23;20200;-82
2021/01/14 03:54:31;;;;;;;10.05;6.75;;;2.20;98.30;;;;;;5149579;23;20201;-82
2021/01/14 03:56:37;;;;;;;11.68;7.65;;;2.20;98.30;;;;;;5150670;23;20284;-82
2021/01/14 03:58:39;;;;;;;8.30;6.80;;;2.20;98.30;;;;;;5142390;23;20235;-82
2021/01/14 04:00:44;;;;;;;14.35;8.50;;;2.20;98.30;;;;;;5150772;23;20535;-82
2021/01/14 04:02:49;;;;;;;22.42;12.68;;;2.20;98.30;;;;;;5142856;23;20688;-82
2021/01/14 04:04:51;;;;;;;15.10;8.55;;;2.10;98.30;;;;;;5151365;23;20198;-82
2021/01/14 04:07:01;;;;;;;16.80;8.52;;;2.20;98.30;;;;;;5151239;23;20210;-82
2021/01/14 04:09:05;;;;;;;12.45;7.95;;;2.20;98.30;;;;;;5150601;23;20236;-82
2021/01/14 04:11:10;;;;;;;11.90;8.02;;;2.20;98.30;;;;;;5149301;23;20209;-82
2021/01/14 04:14:10;;;;;;;12.23;7.90;;;2.30;98.30;;;;;;5149713;23;20202;-82
2021/01/14 04:29:39;;;;;;;8.73;7.18;;;2.40;98.30;;;;;;5024667;23;20261;-82
2021/01/14 04:35:37;;;;;;;12.18;7.65;;;2.40;98.30;;;;;;5026983;23;20243;-82
2021/01/14 04:42:21;;;;;;;;;;;;;;;;;;;;;
2021/01/14 04:44:54;;;;;;;11.52;8.07;;;2.40;98.30;;;;;;5051667;23;20412;-82
2021/01/14 04:47:03;;;;;;;13.90;8.57;;;2.50;98.30;;;;;;5073696;23;20517;-82
2021/01/14 04:49:12;;;;;;;13.85;7.88;;;2.50;98.30;;;;;;5064876;23;20216;-82
2021/01/14 04:51:25;;;;;;;14.57;8.00;;;2.40;98.30;;;;;;5084799;23;20212;-82
2021/01/14 04:53:32;;;;;;;12.80;8.60;;;2.40;98.30;;;;;;5150962;23;20712;-82
2021/01/14 04:55:48;;;;;;;15.48;8.00;;;2.40;98.30;;;;;;5150503;23;20248;-82
2021/01/14 04:58:06;;;;;;;13.07;9.10;;;2.40;98.30;;;;;;5151139;23;20229;-82
2021/01/14 05:00:12;;;;;;;16.23;11.70;;;2.40;98.30;;;;;;5151569;23;20213;-82
2021/01/14 05:02:21;;;;;;;13.30;8.88;;;2.40;98.30;;;;;;5150722;23;20830;-82
2021/01/14 05:05:00;;;;;;;14.35;9.02;;;2.40;98.30;;;;;;5149398;23;20248;-82
2021/01/14 05:07:50;;;;;;;25.73;15.98;;;2.60;98.30;;;;;;5040862;23;20208;-82
2021/01/14 05:10:09;;;;;;;23.42;12.90;;;2.90;98.30;;;;;;5049038;23;20677;-82
2021/01/14 05:12:27;;;;;;;15.40;10.18;;;3.00;98.30;;;;;;5049748;23;20208;-82
2021/01/14 05:14:44;;;;;;;31.05;16.85;;;2.90;98.30;;;;;;5050396;23;20750;-82
2021/01/14 05:17:09;;;;;;;60.15;35.58;;;2.90;98.30;;;;;;5050305;23;20623;-82
2021/01/14 05:19:20;;;;;;;37.50;23.67;;;3.10;98.30;;;;;;5050287;23;20236;-82
2021/01/14 05:21:56;;;;;;;15.05;9.93;;;3.40;98.30;;;;;;5049762;23;20227;-82
2021/01/14 05:24:27;;;;;;;17.13;9.80;;;3.20;98.30;;;;;;5049844;23;20348;-82
2021/01/14 05:26:40;;;;;;;15.00;10.02;;;3.00;98.30;;;;;;5143521;23;20731;-82
2021/01/14 05:28:56;;;;;;;15.70;10.50;;;2.90;98.30;;;;;;5149287;23;20564;-82
2021/01/14 05:31:21;;;;;;;17.95;11.18;;;2.80;98.30;;;;;;5150148;23;20559;-82
2021/01/14 05:33:33;;;;;;;16.27;9.32;;;2.80;98.30;;;;;;5150402;23;20229;-82
2021/01/14 05:35:47;;;;;;;15.80;9.98;;;2.70;98.30;;;;;;5151372;23;20231;-82
2021/01/14 05:37:50;;;;;;;16.30;10.77;;;2.70;98.30;;;;;;5150880;23;20288;-82
2021/01/14 05:40:06;;;;;;;21.77;12.35;;;2.70;98.30;;;;;;5151159;23;20228;-82
2021/01/14 05:42:16;;;;;;;18.75;10.85;;;2.60;98.30;;;;;;5150272;23;20197;-82
2021/01/14 05:44:19;;;;;;;14.70;10.77;;;2.60;98.30;;;;;;5148805;23;20201;-82
2021/01/14 05:46:30;;;;;;;14.82;9.90;;;2.70;98.30;;;;;;5149203;23;20237;-82
2021/01/14 05:48:37;;;;;;;13.82;9.07;;;2.70;98.30;;;;;;5148747;23;20208;-82
2021/01/14 05:50:46;;;;;;;14.18;9.88;;;2.70;98.30;;;;;;5151127;23;20202;-83
2021/01/14 05:52:55;;;;;;;13.20;8.60;;;2.70;98.30;;;;;;5150128;23;20261;-84
2021/01/14 05:55:06;;;;;;;15.02;9.52;;;2.70;98.30;;;;;;5149948;23;20206;-84
2021/01/14 05:57:31;;;;;;;13.73;8.80;;;2.70;98.30;;;;;;5149474;23;20679;-82
2021/01/14 06:04:45;;;;;;;20.35;11.93;;;2.70;98.30;;;;;;5169015;22;20212;-83
2021/01/14 06:06:49;;;;;;;42.03;24.52;;;2.70;98.30;;;;;;5173482;23;20255;-83
2021/01/14 06:08:51;;;;;;;66.63;32.55;;;3.10;98.30;;;;;;5173913;23;20205;-83
2021/01/14 06:10:55;;;;;;;20.80;11.32;;;3.40;98.30;;;;;;5179443;23;20213;-83
2021/01/14 06:12:57;;;;;;;16.55;9.40;;;3.30;98.30;;;;;;5165139;23;20428;-84
2021/01/14 06:14:59;;;;;;;12.05;8.07;;;3.10;98.30;;;;;;5154292;23;20681;-83
2021/01/14 06:17:02;;;;;;;13.77;9.00;;;3.00;98.30;;;;;;5153515;23;20233;-83
2021/01/14 06:19:05;;;;;;;11.75;7.28;;;2.90;98.30;;;;;;5147323;23;20556;-83
2021/01/14 06:21:07;;;;;;;14.32;9.23;;;2.80;98.30;;;;;;5154174;23;20225;-83
2021/01/14 06:23:10;;;;;;;44.20;24.98;;;2.80;98.30;;;;;;5153986;23;20198;-83
2021/01/14 06:25:13;;;;;;;53.33;27.35;;;2.90;98.30;;;;;;5152454;23;20281;-84
2021/01/14 06:27:16;;;;;;;15.98;11.88;;;3.20;98.30;;;;;;5153078;23;20206;-83
2021/01/14 06:29:20;;;;;;;14.93;9.60;;;3.20;98.30;;;;;;5151964;23;20288;-83
2021/01/14 06:31:26;;;;;;;13.55;9.82;;;3.00;98.30;;;;;;5153535;23;20201;-83
2021/01/14 06:33:29;;;;;;;10.10;8.05;;;2.90;98.30;;;;;;5145028;23;20217;-83
2021/01/14 06:35:31;;;;;;;12.23;9.02;;;2.90;98.30;;;;;;5144637;23;20538;-83
2021/01/14 06:37:37;;;;;;;12.00;8.43;;;2.80;98.30;;;;;;5152919;23;20286;-83
2021/01/14 06:39:42;;;;;;;10.10;7.10;;;2.70;98.30;;;;;;5153281;23;20629;-84
2021/01/14 06:41:46;;;;;;;16.60;9.77;;;2.70;98.30;;;;;;5145155;23;20297;-83
2021/01/14 06:43:50;;;;;;;14.95;8.40;;;2.60;98.30;;;;;;5152953;23;20212;-83
2021/01/14 06:45:57;;;;;;;14.38;9.98;;;2.60;98.30;;;;;;5144056;23;20284;-83
2021/01/14 06:48:04;;;;;;;16.98;10.55;;;2.60;98.30;;;;;;5151166;23;20201;-83
2021/01/14 06:50:18;;;;;;;11.77;8.73;;;2.60;98.30;;;;;;5152736;23;20276;-83
2021/01/14 06:52:23;;;;;;;10.60;7.32;;;2.70;98.30;;;;;;5151515;23;20209;-83
2021/01/14 06:54:26;;;;;;;12.70;9.25;;;2.70;98.30;;;;;;5152175;23;20206;-83
2021/01/14 06:56:37;;;;;;;24.70;9.70;;;2.70;98.30;;;;;;5145514;23;20227;-83
2021/01/14 06:58:47;;;;;;;12.32;8.55;;;2.60;98.30;;;;;;5147115;23;20201;-82
2021/01/14 07:00:50;;;;;;;11.60;8.75;;;2.60;98.30;;;;;;5145639;23;20205;-82
2021/01/14 07:02:54;;;;;;;11.88;8.40;;;2.70;98.30;;;;;;5155737;23;20228;-83
2021/01/14 07:05:03;;;;;;;13.70;9.15;;;2.70;98.30;;;;;;5146776;23;20771;-83
2021/01/14 07:07:30;;;;;;;16.88;8.23;;;2.70;98.30;;;;;;5155502;23;20217;-83
2021/01/14 07:09:38;;;;;;;12.60;8.68;;;2.70;98.30;;;;;;5146660;23;20198;-83
2021/01/14 07:11:42;;;;;;;14.80;9.00;;;2.80;98.30;;;;;;5154880;23;20221;-83
2021/01/14 07:13:45;;;;;;;12.52;8.48;;;2.80;98.30;;;;;;5146068;23;20292;-83
2021/01/14 07:15:49;;;;;;;11.93;7.78;;;2.70;98.30;;;;;;5154557;23;20201;-84
2021/01/14 07:18:02;;;;;;;10.13;7.47;;;2.60;98.30;;;;;;5158900;23;20680;-83
2021/01/14 07:20:08;;;;;;;13.38;8.63;;;2.60;98.30;;;;;;5153889;23;20208;-83
2021/01/14 07:22:13;;;;;;;16.10;8.88;;;2.60;98.30;;;;;;5157682;23;20233;-84
2021/01/14 07:24:19;;;;;;;11.02;6.50;;;2.60;98.30;;;;;;5170402;23;20221;-83
2021/01/14 07:26:23;;;;;;;12.65;7.22;;;2.60;98.30;;;;;;5169304;23;20189;-84
2021/01/14 07:28:25;;;;;;;11.88;7.85;;;2.50;98.30;;;;;;5168678;23;20206;-83
2021/01/14 07:30:30;;;;;;;11.65;7.97;;;2.50;98.30;;;;;;5169707;23;20217;-84
2021/01/14 07:33:04;;;;;;;16.05;10.55;;;2.50;98.30;;;;;;5157338;23;20527;-82
2021/01/14 07:35:34;;;;;;;11.20;8.02;;;2.50;98.30;;;;;;5087748;23;20205;-83
2021/01/14 07:37:53;;;;;;;15.13;8.40;;;2.50;98.30;;;;;;5147889;23;20201;-82
2021/01/14 07:39:57;;;;;;;61.72;34.33;;;2.50;98.30;;;;;;5148091;23;20210;-84
2021/01/14 07:41:59;;;;;;;93.55;53.85;;;2.50;98.30;;;;;;5152996;23;20301;-83
2021/01/14 07:44:01;;;;;;;89.82;46.47;;;2.60;98.30;;;;;;5150034;23;20241;-84
2021/01/14 07:46:18;;;;;;;19.63;11.77;;;2.60;98.30;;;;;;5150022;23;20206;-84
2021/01/14 07:48:23;;;;;;;12.13;7.15;;;2.60;98.30;;;;;;5141234;23;20213;-84
2021/01/14 07:50:30;;;;;;;12.75;8.32;;;2.60;98.30;;;;;;5150496;23;20206;-84
2021/01/14 07:52:34;;;;;;;12.68;7.82;;;2.60;98.30;;;;;;5156036;23;20339;-84
2021/01/14 07:54:57;;;;;;;9.25;7.72;;;2.60;98.30;;;;;;5155642;23;20205;-84
2021/01/14 07:57:03;;;;;;;10.30;7.15;;;2.60;98.30;;;;;;5153056;23;20206;-84
2021/01/14 07:59:06;;;;;;;14.57;9.60;;;2.60;98.30;;;;;;5153591;23;20201;-83
2021/01/14 08:01:09;;;;;;;86.20;55.85;;;2.60;98.30;;;;;;5151754;23;20201;-83
2021/01/14 08:03:13;;;;;;;109.70;44.88;;;2.60;98.30;;;;;;5151438;23;20206;-84
2021/01/14 08:05:41;;;;;;;22.25;12.45;;;2.70;98.30;;;;;;5152181;23;20206;-83
2021/01/14 08:07:43;;;;;;;14.30;8.98;;;2.70;98.30;;;;;;5153710;23;20285;-84
2021/01/14 08:09:47;;;;;;;12.27;7.57;;;2.70;98.30;;;;;;5155070;23;20207;-83
2021/01/14 08:11:59;;;;;;;13.10;8.93;;;2.80;98.30;;;;;;5154581;23;20280;-83
2021/01/14 08:14:06;;;;;;;12.82;7.53;;;2.70;98.30;;;;;;5155094;23;20252;-85
2021/01/14 08:16:08;;;;;;;10.23;6.50;;;2.70;98.30;;;;;;5154987;23;20206;-84
2021/01/14 08:18:11;;;;;;;10.05;7.20;;;2.70;98.30;;;;;;5155187;23;20236;-83
2021/01/14 08:20:17;;;;;;;7.53;6.18;;;2.80;98.30;;;;;;5148593;23;20205;-83
2021/01/14 08:22:20;;;;;;;9.45;5.88;;;2.70;98.30;;;;;;5159078;23;20212;-85
2021/01/14 08:24:51;;;;;;;9.25;6.82;;;2.70;98.30;;;;;;5154858;23;20213;-84
2021/01/14 08:26:54;;;;;;;10.60;7.32;;;2.70;98.30;;;;;;5152581;23;20206;-83
2021/01/14 08:29:00;;;;;;;11.73;6.47;;;2.70;98.30;;;;;;5152531;23;20711;-84
2021/01/14 08:31:02;;;;;;;10.82;6.97;;;2.60;98.30;;;;;;5153989;23;20784;-84
2021/01/14 08:33:08;;;;;;;9.48;7.10;;;2.60;98.30;;;;;;5152208;23;20511;-83
2021/01/14 08:35:20;;;;;;;11.55;7.00;;;2.60;98.30;;;;;;5152963;23;20257;-84
2021/01/14 08:37:31;;;;;;;8.75;6.90;;;2.60;98.30;;;;;;5152452;23;20695;-84
2021/01/14 08:39:34;;;;;;;9.70;7.72;;;2.60;98.30;;;;;;5152310;23;20224;-84
2021/01/14 08:41:37;;;;;;;10.23;7.70;;;2.60;98.30;;;;;;5144399;23;20202;-84
2021/01/14 08:43:40;;;;;;;12.73;8.07;;;2.60;98.30;;;;;;5152270;23;20611;-83
2021/01/14 08:45:44;;;;;;;7.57;6.15;;;2.70;98.30;;;;;;5152353;23;20200;-84
2021/01/14 08:48:02;;;;;;;11.60;6.25;;;2.70;98.30;;;;;;5143732;23;20233;-85
2021/01/14 08:50:05;;;;;;;9.85;5.47;;;2.70;98.30;;;;;;5142847;23;20212;-84
2021/01/14 08:52:09;;;;;;;9.55;6.40;;;2.70;98.30;;;;;;5153017;23;20637;-84
2021/01/14 08:54:13;;;;;;;13.07;6.50;;;2.70;98.30;;;;;;5155170;23;20236;-85
2021/01/14 08:56:17;;;;;;;10.38;6.60;;;2.70;98.30;;;;;;5156367;23;20818;-84
2021/01/14 08:58:19;;;;;;;10.73;6.55;;;2.80;98.30;;;;;;5156348;23;20205;-83
2021/01/14 09:00:24;;;;;;;11.25;7.60;;;2.80;98.30;;;;;;5156516;23;20237;-84
2021/01/14 09:02:27;;;;;;;14.88;8.63;;;2.80;98.30;;;;;;5150495;23;20264;-84
2021/01/14 09:04:30;;;;;;;12.27;7.00;;;2.80;98.30;;;;;;5152100;23;20201;-84
2021/01/14 09:06:33;;;;;;;14.13;7.07;;;2.80;98.30;;;;;;5152792;23;20206;-84
2021/01/14 09:08:36;;;;;;;9.35;7.15;;;2.80;98.30;;;;;;5152285;23;20209;-84
2021/01/14 09:10:48;;;;;;;11.50;7.28;;;2.80;98.30;;;;;;5153669;23;20206;-84
2021/01/14 09:12:50;;;;;;;11.77;7.70;;;2.80;98.30;;;;;;5153725;23;20197;-83
2021/01/14 09:14:52;;;;;;;12.13;6.93;;;2.70;98.30;;;;;;5153924;23;20300;-84
2021/01/14 09:16:55;;;;;;;11.50;6.65;;;2.70;98.30;;;;;;5154144;23;20424;-84
2021/01/14 09:18:57;;;;;;;8.80;7.00;;;2.70;98.30;;;;;;5145854;23;21060;-84
2021/01/14 09:21:00;;;;;;;11.82;8.07;;;2.70;98.30;;;;;;5155244;23;20201;-84
2021/01/14 09:23:17;;;;;;;13.70;7.80;;;2.70;98.30;;;;;;5156351;23;20217;-84
2021/01/14 09:25:31;;;;;;;19.15;9.70;;;2.70;98.30;;;;;;5159271;23;20665;-84
2021/01/14 09:27:35;;;;;;;50.88;26.42;;;2.80;98.30;;;;;;5163672;23;20270;-83
2021/01/14 09:29:38;;;;;;;119.70;50.42;;;2.80;98.30;;;;;;5154402;23;20259;-85
2021/01/14 09:31:41;;;;;;;77.65;41.08;;;2.90;98.30;;;;;;5154858;23;20198;-83
2021/01/14 09:33:45;;;;;;;31.08;15.45;;;2.90;98.30;;;;;;5153921;23;20208;-84
2021/01/14 09:35:58;;;;;;;13.30;8.05;;;2.90;98.30;;;;;;5154686;23;20271;-83
2021/01/14 09:38:00;;;;;;;15.98;8.23;;;2.90;98.30;;;;;;5156300;23;20648;-84
2021/01/14 09:40:10;;;;;;;11.68;7.65;;;2.90;98.30;;;;;;5156554;23;20203;-84
2021/01/14 09:42:12;;;;;;;13.90;7.55;;;3.00;98.30;;;;;;5157647;23;20205;-84
2021/01/14 09:44:16;;;;;;;9.48;6.50;;;3.00;98.30;;;;;;5156151;23;20225;-84
2021/01/14 09:46:20;;;;;;;11.60;7.25;;;3.00;98.30;;;;;;5156022;23;20225;-83
2021/01/14 09:48:22;;;;;;;12.73;8.02;;;3.00;98.30;;;;;;5155178;23;20735;-83
2021/01/14 09:50:27;;;;;;;14.57;8.75;;;3.10;98.30;;;;;;5155841;23;20216;-84
2021/01/14 09:52:30;;;;;;;10.50;7.50;;;3.10;98.30;;;;;;5156796;23;20225;-84
2021/01/14 09:54:32;;;;;;;12.70;8.00;;;3.10;98.30;;;;;;5147953;23;20212;-85
2021/01/14 09:56:36;;;;;;;10.50;7.05;;;3.10;98.30;;;;;;5154806;23;20212;-84
2021/01/14 09:58:47;;;;;;;10.90;7.80;;;3.00;98.30;;;;;;5146316;23;20579;-83
2021/01/14 10:00:52;;;;;;;12.90;8.73;;;3.00;98.30;;;;;;5154338;23;20206;-84
2021/01/14 10:03:01;;;;;;;19.50;10.82;;;3.10;98.30;;;;;;5153846;23;20210;-84
2021/01/14 10:05:12;;;;;;;30.15;17.27;;;3.40;98.30;;;;;;5157253;23;20201;-84
2021/01/14 10:07:27;;;;;;;22.50;12.95;;;3.80;98.30;;;;;;5156954;23;20218;-84
2021/01/14 10:09:29;;;;;;;11.18;8.07;;;3.80;98.30;;;;;;5157206;23;20212;-86
2021/01/14 10:11:33;;;;;;;11.60;8.53;;;3.60;98.30;;;;;;5157844;23;20209;-85
2021/01/14 10:13:36;;;;;;;10.35;7.40;;;3.40;98.30;;;;;;5156738;23;20459;-83
2021/01/14 10:15:38;;;;;;;11.20;7.35;;;3.40;98.30;;;;;;5157224;23;20202;-83
2021/01/14 10:17:45;;;;;;;9.98;6.80;;;3.30;98.30;;;;;;5157608;23;20276;-85
2021/01/14 10:19:49;;;;;;;10.93;7.57;;;3.20;98.30;;;;;;5158149;23;20229;-83
2021/01/14 10:22:06;;;;;;;9.95;6.78;;;3.20;98.30;;;;;;5158690;23;20258;-84
2021/01/14 10:24:19;;;;;;;12.55;7.25;;;3.20;98.30;;;;;;5163844;23;20203;-84
2021/01/14 10:26:28;;;;;;;13.20;7.60;;;3.10;98.30;;;;;;5158471;23;20213;-84
2021/01/14 10:28:43;;;;;;;10.43;7.43;;;3.10;98.30;;;;;;5157413;23;21146;-84
2021/01/14 10:30:45;;;;;;;13.07;7.37;;;3.10;98.30;;;;;;5160629;23;20206;-84
2021/01/14 10:32:49;;;;;;;13.82;8.02;;;3.10;98.30;;;;;;5162150;23;20444;-84
2021/01/14 10:34:53;;;;;;;12.43;7.78;;;3.10;98.30;;;;;;5157496;23;20202;-85
2021/01/14 10:36:55;;;;;;;16.60;7.82;;;3.20;98.30;;;;;;5156895;23;20197;-84
2021/01/14 10:38:57;;;;;;;17.90;7.93;;;3.20;98.30;;;;;;5157842;23;20198;-84
2021/01/14 10:41:22;;;;;;;12.48;8.80;;;3.10;98.30;;;;;;5156917;23;20727;-83
2021/01/14 10:43:33;;;;;;;10.02;7.95;;;3.10;98.30;;;;;;5156661;23;20206;-84
2021/01/14 10:45:47;;;;;;;10.55;6.88;;;3.10;98.30;;;;;;5158364;23;20228;-84
2021/01/14 10:47:50;;;;;;;12.13;8.10;;;3.00;98.30;;;;;;5157304;23;20202;-84
2021/01/14 10:49:52;;;;;;;11.02;9.30;;;3.10;98.30;;;;;;5158236;23;20229;-84
2021/01/14 10:52:04;;;;;;;12.85;8.70;;;3.00;98.30;;;;;;5158996;23;20210;-84
2021/01/14 10:54:06;;;;;;;15.27;8.82;;;3.00;98.30;;;;;;5158034;23;20202;-84
2021/01/14 10:56:10;;;;;;;11.10;7.82;;;3.00;98.30;;;;;;5150138;23;20232;-84
2021/01/14 10:58:22;;;;;;;9.95;7.20;;;2.90;98.30;;;;;;5149378;23;20657;-84
2021/01/14 11:00:25;;;;;;;13.43;9.15;;;3.00;98.30;;;;;;5161120;23;20232;-85
2021/01/14 11:02:28;;;;;;;15.05;8.73;;;3.00;98.30;;;;;;5162411;23;20214;-84
2021/01/14 11:04:31;;;;;;;13.02;7.88;;;3.10;98.30;;;;;;5162864;23;20202;-85
2021/01/14 11:06:36;;;;;;;12.77;9.32;;;3.10;98.30;;;;;;5157220;23;20205;-84
2021/01/14 11:08:44;;;;;;;8.52;6.18;;;3.10;98.30;;;;;;5155491;23;20209;-84
2021/01/14 11:10:47;;;;;;;12.82;7.28;;;3.10;98.30;;;;;;5156143;23;20205;-84
2021/01/14 11:13:03;;;;;;;10.45;7.55;;;3.20;98.30;;;;;;5156623;23;20658;-83
2021/01/14 11:15:06;;;;;;;10.85;6.97;;;3.20;98.30;;;;;;5148764;23;20210;-84
2021/01/14 11:17:08;;;;;;;12.25;8.00;;;3.20;98.30;;;;;;5155884;23;20206;-84
2021/01/14 11:19:10;;;;;;;9.90;7.38;;;3.20;98.30;;;;;;5157071;23;20198;-84
2021/01/14 11:21:16;;;;;;;12.15;7.35;;;3.10;98.30;;;;;;5158776;23;20202;-83
2021/01/14 11:23:19;;;;;;;9.55;7.80;;;3.20;98.30;;;;;;5158005;23;20206;-84
2021/01/14 11:25:21;;;;;;;10.93;7.72;;;3.20;98.30;;;;;;5158163;23;20233;-84
2021/01/14 11:27:29;;;;;;;10.80;7.90;;;3.20;98.30;;;;;;5148763;23;20558;-84
2021/01/14 11:29:33;;;;;;;12.00;7.80;;;3.20;98.30;;;;;;5156930;23;20209;-84
2021/01/14 11:31:37;;;;;;;10.40;7.63;;;3.20;98.30;;;;;;5157036;23;20280;-84
2021/01/14 11:33:39;;;;;;;10.93;7.95;;;3.20;98.30;;;;;;5158360;23;20212;-84
2021/01/14 11:35:42;;;;;;;13.38;8.00;;;3.20;98.30;;;;;;5160485;23;20217;-84
2021/01/14 11:37:49;;;;;;;12.57;7.40;;;3.20;98.30;;;;;;5153458;23;20205;-84
2021/01/14 11:39:51;;;;;;;9.38;6.45;;;3.10;98.30;;;;;;5153592;23;20249;-84
2021/01/14 11:41:53;;;;;;;12.32;8.65;;;3.10;98.30;;;;;;5153902;23;20202;-85
2021/01/14 11:43:59;;;;;;;10.70;8.07;;;3.10;98.30;;;;;;5146166;23;20243;-83
2021/01/14 11:46:02;;;;;;;11.13;7.72;;;3.10;98.30;;;;;;5154336;23;20213;-83
2021/01/14 11:48:06;;;;;;;11.73;6.63;;;3.20;98.30;;;;;;5153153;23;20210;-84
2021/01/14 11:50:09;;;;;;;11.77;8.02;;;3.20;98.30;;;;;;5153659;23;20206;-83
2021/01/14 11:52:15;;;;;;;26.90;17.10;;;3.20;98.30;;;;;;5154695;23;20546;-83
2021/01/14 11:54:19;;;;;;;112.22;54.85;;;3.20;98.30;;;;;;5154377;23;20209;-84
2021/01/14 11:56:21;;;;;;;79.68;38.05;;;3.10;98.30;;;;;;5154759;23;20206;-85
2021/01/14 11:58:29;;;;;;;22.88;14.13;;;3.20;98.30;;;;;;5154769;23;20201;-83
2021/01/14 12:00:31;;;;;;;12.27;8.82;;;3.20;98.30;;;;;;5154490;23;20208;-85
2021/01/14 12:02:34;;;;;;;13.07;8.73;;;3.20;98.30;;;;;;5155008;23;20237;-84
2021/01/14 12:06:41;;;;;;;15.00;8.85;;;3.10;98.30;;;;;;5091229;23;20282;-79
2021/01/14 12:08:46;;;;;;;13.88;8.88;;;3.00;98.30;;;;;;5092969;23;20618;-83
2021/01/14 12:10:49;;;;;;;12.80;7.80;;;3.00;98.30;;;;;;5101648;23;20207;-79
2021/01/14 12:12:51;;;;;;;11.38;7.97;;;3.10;98.30;;;;;;5093589;23;20249;-79
2021/01/14 12:14:58;;;;;;;13.45;7.72;;;3.10;98.30;;;;;;5088494;23;20211;-79
2021/01/14 12:17:02;;;;;;;12.02;7.30;;;3.10;98.30;;;;;;5070124;23;20710;-79
2021/01/14 12:19:04;;;;;;;10.00;7.45;;;3.10;98.30;;;;;;5068847;23;20209;-79
2021/01/14 12:21:06;;;;;;;13.10;8.85;;;3.00;98.30;;;;;;5076518;23;20238;-79
2021/01/14 12:23:08;;;;;;;39.75;22.25;;;3.00;98.30;;;;;;5077312;23;20204;-83
2021/01/14 12:25:12;;;;;;;53.55;26.17;;;3.00;98.30;;;;;;5076939;23;21034;-79
2021/01/14 12:27:15;;;;;;;22.95;14.52;;;3.10;98.30;;;;;;5069664;23;20208;-79
2021/01/14 12:29:17;;;;;;;14.75;9.45;;;3.10;98.30;;;;;;5079435;23;20204;-80
2021/01/14 12:31:19;;;;;;;10.90;8.30;;;3.20;98.30;;;;;;5080372;23;20239;-79
2021/01/14 12:33:21;;;;;;;9.90;7.25;;;3.20;98.30;;;;;;5078160;23;20672;-79
2021/01/14 12:35:23;;;;;;;9.10;7.55;;;3.20;98.30;;;;;;5076538;23;20236;-79
2021/01/14 12:37:35;;;;;;;8.73;7.57;;;3.20;98.30;;;;;;5076216;23;20228;-79
2021/01/14 12:39:39;;;;;;;13.63;8.55;;;3.20;98.30;;;;;;5076596;23;20857;-79
2021/01/14 12:41:41;;;;;;;11.13;6.97;;;3.10;98.30;;;;;;5068319;23;20212;-79
2021/01/14 12:43:46;;;;;;;12.45;7.75;;;3.20;98.30;;;;;;5068733;23;20672;-79
2021/01/14 12:45:50;;;;;;;11.18;7.40;;;3.20;98.30;;;;;;5068469;23;20269;-79
2021/01/14 12:47:52;;;;;;;9.93;7.32;;;3.10;98.30;;;;;;5076141;23;20200;-79
2021/01/14 12:49:54;;;;;;;12.70;7.07;;;3.10;98.30;;;;;;5076745;23;20212;-79
2021/01/14 12:51:57;;;;;;;13.10;7.07;;;3.10;98.30;;;;;;5076808;23;20209;-79
2021/01/14 12:54:02;;;;;;;10.55;7.47;;;3.10;98.30;;;;;;5068309;23;20259;-79
2021/01/14 12:56:05;;;;;;;9.43;6.70;;;3.10;98.30;;;;;;5068622;23;20219;-79
2021/01/14 12:58:09;;;;;;;10.82;7.80;;;3.20;98.30;;;;;;5075971;23;20284;-79
2021/01/14 13:00:13;;;;;;;11.15;8.10;;;3.20;98.30;;;;;;5068321;23;20283;-79
2021/01/14 13:02:22;;;;;;;11.48;7.40;;;3.30;98.30;;;;;;5076855;23;20232;-79
2021/01/14 13:04:24;;;;;;;9.85;7.35;;;3.20;98.30;;;;;;5068404;23;20216;-79
2021/01/14 13:06:27;;;;;;;10.68;7.10;;;3.20;98.30;;;;;;5076894;23;20218;-79
2021/01/14 13:08:30;;;;;;;12.50;7.40;;;3.20;98.30;;;;;;5068550;23;20242;-79
2021/01/14 13:10:32;;;;;;;14.65;7.88;;;3.20;98.30;;;;;;5068592;23;20302;-79
2021/01/14 13:12:34;;;;;;;10.32;8.27;;;3.20;98.30;;;;;;5076469;23;20207;-79
2021/01/14 13:14:36;;;;;;;10.10;8.37;;;3.20;98.30;;;;;;5075594;23;20216;-79
2021/01/14 13:16:41;;;;;;;10.80;7.30;;;3.30;98.30;;;;;;5068838;23;20807;-79
2021/01/14 13:18:44;;;;;;;9.85;6.75;;;3.30;98.30;;;;;;5070053;23;20243;-82
2021/01/14 13:20:49;;;;;;;9.50;7.47;;;3.30;98.30;;;;;;5077909;23;20200;-82
2021/01/14 13:22:50;;;;;;;11.70;8.15;;;3.20;98.30;;;;;;5077031;23;20466;-79
2021/01/14 13:24:53;;;;;;;9.88;7.38;;;3.20;98.30;;;;;;5077199;23;20204;-82
2021/01/14 13:26:55;;;;;;;9.13;6.57;;;3.20;98.30;;;;;;5075655;23;20204;-82
2021/01/14 13:28:58;;;;;;;10.15;8.23;;;3.20;98.30;;;;;;5066977;23;20212;-80
2021/01/14 13:31:00;;;;;;;12.52;7.78;;;3.10;98.30;;;;;;5067373;23;20262;-79
2021/01/14 13:33:06;;;;;;;10.52;7.95;;;3.20;98.30;;;;;;5075578;23;20458;-79
2021/01/14 13:35:09;;;;;;;11.45;8.50;;;3.20;98.30;;;;;;5075028;23;20228;-79
2021/01/14 13:37:11;;;;;;;13.82;8.60;;;3.10;98.30;;;;;;5067220;23;20212;-79
2021/01/14 13:39:18;;;;;;;12.35;8.07;;;3.20;98.30;;;;;;5068538;23;20215;-80
2021/01/14 13:41:20;;;;;;;14.40;7.88;;;3.10;98.30;;;;;;5077117;23;20283;-79
2021/01/14 13:43:22;;;;;;;16.50;7.95;;;3.10;98.30;;;;;;5069136;23;20543;-79
2021/01/14 13:45:24;;;;;;;11.35;7.80;;;3.10;98.30;;;;;;5069928;23;20232;-79
2021/01/14 13:47:26;;;;;;;11.90;7.90;;;3.10;98.30;;;;;;5069371;23;20287;-79
2021/01/14 13:49:29;;;;;;;10.30;8.20;;;3.10;98.30;;;;;;5068618;23;20239;-79
2021/01/14 13:51:32;;;;;;;11.65;8.18;;;3.10;98.30;;;;;;5076349;23;20304;-79